createdAt,value
2022-07-30T00:00:25.176Z,17.30
2022-07-30T00:01:22.195Z,17.32
2022-07-30T00:02:22.155Z,17.30
2022-07-30T00:03:22.162Z,17.28
2022-07-30T00:04:22.122Z,17.24
2022-07-30T00:05:22.118Z,17.17
2022-07-30T00:06:22.095Z,17.19
2022-07-30T00:07:22.085Z,17.20
2022-07-30T00:08:22.085Z,17.16
2022-07-30T00:09:22.057Z,17.22
2022-07-30T00:10:22.042Z,17.22
2022-07-30T00:11:25.917Z,17.14
2022-07-30T00:12:22.017Z,17.20
2022-07-30T00:13:22.011Z,17.19
2022-07-30T00:14:21.989Z,17.17
2022-07-30T00:15:21.974Z,17.17
2022-07-30T00:16:22.021Z,17.17
2022-07-30T00:17:21.948Z,17.20
2022-07-30T00:18:22.451Z,17.22
2022-07-30T00:19:21.921Z,17.17
2022-07-30T00:20:21.910Z,17.20
2022-07-30T00:21:35.745Z,17.24
2022-07-30T00:22:21.883Z,17.17
2022-07-30T00:23:21.868Z,17.17
2022-07-30T00:24:21.858Z,17.17
2022-07-30T00:25:21.843Z,17.19
2022-07-30T00:26:21.830Z,17.13
2022-07-30T00:27:21.816Z,17.14
2022-07-30T00:28:21.804Z,17.12
2022-07-30T00:29:21.800Z,17.14
2022-07-30T00:30:21.778Z,17.13
2022-07-30T00:31:21.781Z,17.09
2022-07-30T00:32:21.750Z,17.16
2022-07-30T00:33:21.739Z,17.22
2022-07-30T00:34:21.728Z,17.14
2022-07-30T00:35:21.709Z,17.14
2022-07-30T00:36:21.696Z,17.14
2022-07-30T00:37:21.684Z,17.13
2022-07-30T00:38:21.668Z,17.17
2022-07-30T00:39:21.663Z,17.17
2022-07-30T00:40:21.642Z,17.22
2022-07-30T00:41:21.631Z,17.12
2022-07-30T00:42:21.620Z,17.12
2022-07-30T00:43:21.606Z,17.10
2022-07-30T00:44:21.589Z,17.04
2022-07-30T00:45:21.578Z,17.09
2022-07-30T00:46:21.620Z,16.92
2022-07-30T00:47:21.551Z,16.97
2022-07-30T00:48:21.537Z,16.95
2022-07-30T00:49:21.559Z,16.92
2022-07-30T00:50:21.629Z,16.86
2022-07-30T00:51:21.497Z,16.69
2022-07-30T00:52:21.484Z,16.79
2022-07-30T00:53:21.473Z,16.69
2022-07-30T00:54:21.455Z,16.68
2022-07-30T00:55:21.445Z,16.49
2022-07-30T00:56:21.429Z,16.54
2022-07-30T00:57:21.418Z,16.50
2022-07-30T00:58:21.403Z,16.46
2022-07-30T00:59:21.390Z,16.44
2022-07-30T01:00:21.376Z,16.40
2022-07-30T01:01:21.414Z,16.39
2022-07-30T01:02:21.379Z,16.40
2022-07-30T01:03:21.336Z,16.36
2022-07-30T01:04:21.324Z,16.26
2022-07-30T01:05:21.308Z,16.21
2022-07-30T01:06:21.294Z,16.16
2022-07-30T01:07:21.283Z,16.08
2022-07-30T01:08:21.268Z,16.02
2022-07-30T01:09:21.257Z,15.98
2022-07-30T01:10:21.240Z,15.91
2022-07-30T01:11:21.229Z,15.91
2022-07-30T01:12:21.217Z,15.94
2022-07-30T01:13:21.206Z,15.76
2022-07-30T01:14:21.185Z,15.78
2022-07-30T01:15:21.172Z,15.72
2022-07-30T01:16:21.201Z,15.73
2022-07-30T01:17:21.145Z,15.69
2022-07-30T01:18:21.131Z,15.59
2022-07-30T01:19:21.117Z,15.62
2022-07-30T01:20:21.102Z,15.50
2022-07-30T01:21:21.098Z,15.50
2022-07-30T01:22:21.074Z,15.44
2022-07-30T01:23:21.063Z,15.47
2022-07-30T01:24:21.051Z,15.36
2022-07-30T01:25:21.036Z,15.32
2022-07-30T01:26:21.019Z,15.30
2022-07-30T01:27:21.017Z,15.32
2022-07-30T01:28:20.993Z,15.37
2022-07-30T01:29:20.981Z,15.29
2022-07-30T01:30:20.985Z,15.32
2022-07-30T01:31:21.049Z,15.26
2022-07-30T01:32:20.935Z,15.18
2022-07-30T01:33:20.925Z,15.19
2022-07-30T01:34:20.911Z,15.25
2022-07-30T01:35:20.897Z,15.18
2022-07-30T01:36:20.887Z,15.14
2022-07-30T01:37:20.887Z,15.10
2022-07-30T01:38:20.852Z,15.02
2022-07-30T01:39:20.839Z,15.00
2022-07-30T01:40:20.825Z,15.04
2022-07-30T01:41:20.813Z,15.02
2022-07-30T01:42:20.795Z,14.99
2022-07-30T01:43:20.784Z,15.08
2022-07-30T01:44:24.049Z,15.00
2022-07-30T01:45:20.853Z,15.02
2022-07-30T01:46:20.841Z,15.00
2022-07-30T01:47:20.728Z,15.02
2022-07-30T01:48:20.713Z,14.97
2022-07-30T01:49:20.742Z,15.07
2022-07-30T01:50:20.683Z,14.94
2022-07-30T01:51:20.670Z,15.00
2022-07-30T01:52:20.658Z,14.99
2022-07-30T01:53:20.645Z,14.99
2022-07-30T01:54:20.628Z,14.99
2022-07-30T01:55:20.616Z,14.96
2022-07-30T01:56:24.827Z,14.93
2022-07-30T01:57:20.585Z,14.86
2022-07-30T01:58:20.569Z,14.89
2022-07-30T01:59:20.558Z,14.89
2022-07-30T02:00:20.544Z,14.81
2022-07-30T02:01:20.583Z,14.79
2022-07-30T02:02:20.515Z,14.85
2022-07-30T02:03:21.297Z,14.81
2022-07-30T02:04:20.486Z,14.89
2022-07-30T02:05:20.472Z,14.85
2022-07-30T02:06:20.468Z,14.78
2022-07-30T02:07:20.446Z,14.79
2022-07-30T02:08:20.431Z,14.79
2022-07-30T02:09:20.419Z,14.79
2022-07-30T02:10:20.402Z,14.77
2022-07-30T02:11:20.388Z,14.78
2022-07-30T02:12:20.372Z,14.77
2022-07-30T02:13:20.361Z,14.78
2022-07-30T02:14:20.343Z,14.74
2022-07-30T02:15:20.333Z,14.78
2022-07-30T02:16:20.363Z,14.73
2022-07-30T02:17:20.303Z,14.79
2022-07-30T02:18:21.394Z,14.74
2022-07-30T02:19:20.275Z,14.77
2022-07-30T02:20:20.264Z,14.74
2022-07-30T02:21:20.251Z,14.71
2022-07-30T02:22:20.232Z,14.70
2022-07-30T02:23:20.230Z,14.73
2022-07-30T02:24:20.204Z,14.78
2022-07-30T02:25:20.191Z,14.73
2022-07-30T02:26:20.173Z,14.68
2022-07-30T02:27:20.164Z,14.81
2022-07-30T02:28:20.148Z,14.74
2022-07-30T02:29:20.133Z,14.79
2022-07-30T02:30:20.130Z,14.73
2022-07-30T02:31:20.164Z,14.68
2022-07-30T02:32:20.089Z,14.68
2022-07-30T02:33:20.083Z,14.67
2022-07-30T02:34:20.059Z,14.66
2022-07-30T02:35:20.048Z,14.66
2022-07-30T02:36:20.050Z,14.71
2022-07-30T02:37:20.019Z,14.59
2022-07-30T02:38:20.001Z,14.68
2022-07-30T02:39:20.006Z,14.63
2022-07-30T02:40:19.977Z,14.56
2022-07-30T02:41:19.962Z,14.56
2022-07-30T02:42:19.948Z,14.62
2022-07-30T02:43:19.933Z,14.58
2022-07-30T02:44:19.916Z,14.55
2022-07-30T02:45:19.903Z,14.66
2022-07-30T02:46:19.981Z,14.59
2022-07-30T02:47:19.876Z,14.67
2022-07-30T02:48:34.694Z,14.56
2022-07-30T02:49:19.884Z,14.62
2022-07-30T02:50:19.833Z,14.58
2022-07-30T02:51:19.819Z,14.62
2022-07-30T02:52:19.806Z,14.59
2022-07-30T02:53:19.794Z,14.61
2022-07-30T02:54:19.775Z,14.62
2022-07-30T02:55:19.763Z,14.61
2022-07-30T02:56:19.746Z,14.58
2022-07-30T02:57:19.732Z,14.62
2022-07-30T02:58:19.743Z,14.56
2022-07-30T02:59:19.711Z,14.52
2022-07-30T03:00:19.691Z,14.48
2022-07-30T03:01:19.738Z,14.59
2022-07-30T03:02:26.510Z,14.58
2022-07-30T03:03:19.649Z,14.52
2022-07-30T03:04:19.633Z,14.58
2022-07-30T03:05:19.622Z,14.59
2022-07-30T03:06:19.602Z,14.56
2022-07-30T03:07:19.590Z,14.55
2022-07-30T03:08:19.577Z,14.45
2022-07-30T03:09:19.578Z,14.59
2022-07-30T03:10:19.545Z,14.51
2022-07-30T03:11:19.533Z,14.51
2022-07-30T03:12:19.520Z,14.52
2022-07-30T03:13:19.505Z,14.55
2022-07-30T03:14:19.487Z,14.43
2022-07-30T03:15:19.478Z,14.49
2022-07-30T03:16:19.512Z,14.49
2022-07-30T03:17:19.448Z,14.45
2022-07-30T03:18:19.433Z,14.45
2022-07-30T03:19:19.419Z,14.45
2022-07-30T03:20:19.408Z,14.51
2022-07-30T03:21:19.390Z,14.48
2022-07-30T03:22:19.375Z,14.44
2022-07-30T03:23:19.363Z,14.38
2022-07-30T03:24:19.345Z,14.38
2022-07-30T03:25:19.335Z,14.49
2022-07-30T03:26:19.318Z,14.48
2022-07-30T03:27:19.304Z,14.48
2022-07-30T03:28:19.292Z,14.44
2022-07-30T03:29:21.679Z,14.41
2022-07-30T03:30:19.257Z,14.40
2022-07-30T03:31:19.345Z,14.38
2022-07-30T03:32:19.229Z,14.33
2022-07-30T03:33:19.218Z,14.33
2022-07-30T03:34:19.202Z,14.34
2022-07-30T03:35:20.239Z,14.33
2022-07-30T03:36:19.172Z,14.31
2022-07-30T03:37:19.159Z,14.37
2022-07-30T03:38:19.143Z,14.34
2022-07-30T03:39:19.135Z,14.38
2022-07-30T03:40:19.114Z,14.28
2022-07-30T03:41:19.107Z,14.33
2022-07-30T03:42:19.085Z,14.28
2022-07-30T03:43:33.045Z,14.36
2022-07-30T03:44:19.057Z,14.38
2022-07-30T03:45:19.047Z,14.34
2022-07-30T03:46:19.088Z,14.37
2022-07-30T03:47:19.023Z,14.38
2022-07-30T03:48:19.001Z,14.38
2022-07-30T03:49:19.057Z,14.31
2022-07-30T03:50:18.971Z,14.31
2022-07-30T03:51:18.957Z,14.34
2022-07-30T03:52:18.948Z,14.34
2022-07-30T03:53:18.929Z,14.30
2022-07-30T03:54:18.916Z,14.41
2022-07-30T03:55:18.902Z,14.23
2022-07-30T03:56:18.892Z,14.23
2022-07-30T03:57:20.456Z,14.37
2022-07-30T03:58:18.855Z,14.30
2022-07-30T03:59:18.842Z,14.22
2022-07-30T04:00:18.826Z,14.23
2022-07-30T04:01:18.884Z,14.25
2022-07-30T04:02:18.798Z,14.23
2022-07-30T04:03:18.860Z,14.26
2022-07-30T04:04:18.766Z,14.30
2022-07-30T04:05:18.761Z,14.33
2022-07-30T04:06:18.742Z,14.20
2022-07-30T04:07:18.727Z,14.30
2022-07-30T04:08:18.712Z,14.25
2022-07-30T04:09:18.697Z,14.25
2022-07-30T04:10:18.680Z,14.23
2022-07-30T04:11:18.667Z,14.22
2022-07-30T04:12:18.657Z,14.23
2022-07-30T04:13:18.644Z,14.23
2022-07-30T04:14:18.652Z,14.23
2022-07-30T04:16:15.832Z,14.23
2022-07-30T04:16:41.008Z,14.19
2022-07-30T04:17:18.706Z,14.13
2022-07-30T04:18:18.566Z,14.25
2022-07-30T04:19:18.554Z,14.26
2022-07-30T04:20:18.536Z,14.23
2022-07-30T04:21:18.523Z,14.30
2022-07-30T04:22:18.509Z,14.19
2022-07-30T04:23:18.493Z,14.26
2022-07-30T04:24:18.478Z,14.23
2022-07-30T04:25:24.300Z,14.22
2022-07-30T04:26:18.451Z,14.26
2022-07-30T04:27:18.436Z,14.23
2022-07-30T04:28:18.428Z,14.25
2022-07-30T04:29:23.974Z,14.33
2022-07-30T04:30:18.389Z,14.30
2022-07-30T04:31:18.409Z,14.33
2022-07-30T04:32:18.365Z,14.33
2022-07-30T04:33:18.348Z,14.30
2022-07-30T04:34:18.335Z,14.31
2022-07-30T04:35:23.822Z,14.30
2022-07-30T04:36:18.305Z,14.33
2022-07-30T04:37:18.292Z,14.36
2022-07-30T04:38:18.274Z,14.34
2022-07-30T04:39:18.265Z,14.36
2022-07-30T04:40:18.249Z,14.31
2022-07-30T04:41:18.233Z,14.33
2022-07-30T04:42:18.219Z,14.36
2022-07-30T04:43:18.205Z,14.33
2022-07-30T04:44:18.187Z,14.36
2022-07-30T04:45:18.178Z,14.30
2022-07-30T04:46:18.179Z,14.40
2022-07-30T04:47:18.144Z,14.33
2022-07-30T04:48:18.132Z,14.48
2022-07-30T04:49:18.153Z,14.51
2022-07-30T04:50:18.103Z,14.43
2022-07-30T04:51:18.089Z,14.53
2022-07-30T04:52:18.074Z,14.49
2022-07-30T04:53:18.065Z,14.51
2022-07-30T04:54:18.044Z,14.52
2022-07-30T04:55:18.031Z,14.58
2022-07-30T04:56:18.016Z,14.59
2022-07-30T04:57:18.001Z,14.67
2022-07-30T04:58:17.988Z,14.67
2022-07-30T04:59:17.975Z,14.70
2022-07-30T05:00:17.966Z,14.74
2022-07-30T05:01:17.968Z,14.77
2022-07-30T05:02:18.006Z,14.78
2022-07-30T05:03:17.920Z,14.82
2022-07-30T05:04:17.901Z,14.85
2022-07-30T05:05:17.910Z,14.87
2022-07-30T05:06:17.871Z,14.86
2022-07-30T05:07:17.856Z,15.04
2022-07-30T05:08:17.843Z,15.02
2022-07-30T05:09:17.828Z,15.12
2022-07-30T05:10:17.815Z,15.18
2022-07-30T05:11:17.799Z,15.18
2022-07-30T05:12:17.786Z,15.26
2022-07-30T05:13:17.772Z,15.39
2022-07-30T05:14:17.758Z,15.50
2022-07-30T05:15:17.745Z,15.60
2022-07-30T05:16:17.891Z,15.55
2022-07-30T05:17:17.720Z,15.72
2022-07-30T05:18:17.702Z,15.80
2022-07-30T05:19:17.686Z,15.84
2022-07-30T05:20:17.674Z,15.99
2022-07-30T05:21:17.659Z,15.99
2022-07-30T05:22:17.646Z,16.00
2022-07-30T05:23:17.632Z,16.10
2022-07-30T05:24:17.617Z,16.21
2022-07-30T05:25:17.602Z,16.25
2022-07-30T05:26:17.594Z,16.32
2022-07-30T05:27:17.577Z,16.37
2022-07-30T05:28:17.564Z,16.41
2022-07-30T05:29:19.453Z,16.43
2022-07-30T05:30:17.532Z,16.58
2022-07-30T05:31:17.589Z,16.64
2022-07-30T05:32:17.506Z,16.64
2022-07-30T05:33:17.490Z,16.77
2022-07-30T05:34:17.480Z,16.73
2022-07-30T05:35:17.462Z,16.83
2022-07-30T05:36:17.449Z,16.82
2022-07-30T05:37:17.437Z,16.95
2022-07-30T05:38:17.423Z,17.01
2022-07-30T05:39:17.408Z,16.98
2022-07-30T05:40:17.394Z,17.13
2022-07-30T05:41:30.690Z,17.13
2022-07-30T05:42:17.366Z,17.20
2022-07-30T05:43:17.365Z,17.20
2022-07-30T05:44:21.977Z,17.27
2022-07-30T05:45:17.350Z,17.34
2022-07-30T05:46:17.373Z,17.35
2022-07-30T05:47:17.300Z,17.39
2022-07-30T05:48:17.290Z,17.49
2022-07-30T05:49:17.337Z,17.49
2022-07-30T05:50:17.260Z,17.50
2022-07-30T05:51:17.248Z,17.60
2022-07-30T05:52:17.232Z,17.66
2022-07-30T05:53:17.221Z,17.68
2022-07-30T05:54:17.207Z,17.75
2022-07-30T05:55:17.189Z,17.86
2022-07-30T05:56:17.178Z,17.82
2022-07-30T05:57:17.164Z,17.82
2022-07-30T05:58:17.151Z,17.93
2022-07-30T05:59:17.150Z,17.95
2022-07-30T06:00:17.129Z,17.93
2022-07-30T06:01:17.160Z,18.02
2022-07-30T06:02:17.098Z,18.09
2022-07-30T06:03:17.085Z,18.08
2022-07-30T06:04:17.120Z,18.08
2022-07-30T06:05:17.058Z,18.26
2022-07-30T06:06:22.427Z,18.23
2022-07-30T06:07:17.031Z,18.27
2022-07-30T06:08:17.021Z,18.33
2022-07-30T06:09:17.011Z,18.41
2022-07-30T06:10:16.991Z,18.42
2022-07-30T06:11:16.978Z,18.49
2022-07-30T06:12:16.965Z,18.49
2022-07-30T06:13:16.980Z,18.45
2022-07-30T06:14:16.938Z,18.53
2022-07-30T06:15:20.556Z,18.57
2022-07-30T06:16:16.975Z,18.61
2022-07-30T06:17:16.899Z,18.66
2022-07-30T06:18:16.889Z,18.76
2022-07-30T06:19:19.764Z,18.64
2022-07-30T06:20:26.068Z,18.71
2022-07-30T06:22:25.820Z,18.78
2022-07-30T06:23:21.327Z,18.78
2022-07-30T06:25:25.880Z,18.92
2022-07-30T06:26:25.771Z,18.94
2022-07-30T06:28:39.402Z,18.97
2022-07-30T06:29:31.200Z,19.07
2022-07-30T06:31:24.126Z,19.23
2022-07-30T06:32:24.086Z,19.30
2022-07-30T06:34:28.056Z,19.30
2022-07-30T06:35:28.016Z,19.39
2022-07-30T06:37:58.738Z,19.47
2022-07-30T06:38:33.461Z,19.49
2022-07-30T06:40:37.907Z,19.57
2022-07-30T06:41:37.888Z,19.60
2022-07-30T06:43:42.376Z,19.62
2022-07-30T06:44:42.343Z,19.67
2022-07-30T06:46:46.371Z,19.82
2022-07-30T06:47:46.312Z,19.84
2022-07-30T06:49:50.287Z,20.03
2022-07-30T06:50:50.256Z,19.99
2022-07-30T06:52:54.749Z,20.14
2022-07-30T06:53:54.711Z,20.17
2022-07-30T06:56:00.573Z,20.24
2022-07-30T06:56:59.435Z,20.32
2022-07-30T06:59:03.126Z,20.46
2022-07-30T07:00:03.098Z,20.49
2022-07-30T07:01:56.060Z,20.64
2022-07-30T07:02:55.982Z,20.59
2022-07-30T07:05:00.459Z,20.75
2022-07-30T07:06:00.426Z,20.67
2022-07-30T07:08:04.898Z,20.85
2022-07-30T07:09:04.860Z,20.89
2022-07-30T07:11:09.352Z,21.05
2022-07-30T07:12:09.335Z,21.14
2022-07-30T07:14:13.795Z,21.26
2022-07-30T07:15:13.765Z,21.44
2022-07-30T07:17:19.315Z,21.59
2022-07-30T07:18:19.207Z,21.51
2022-07-30T07:20:23.192Z,21.68
2022-07-30T07:21:23.163Z,21.66
2022-07-30T07:23:41.797Z,21.77
2022-07-30T07:24:27.589Z,21.77
2022-07-30T07:26:31.555Z,21.78
2022-07-30T07:27:31.532Z,21.91
2022-07-30T07:29:35.530Z,21.97
2022-07-30T07:30:35.602Z,21.96
2022-07-30T07:32:39.502Z,22.21
2022-07-30T07:33:39.493Z,22.28
2022-07-30T07:35:49.718Z,22.40
2022-07-30T07:36:43.920Z,22.46
2022-07-30T07:38:47.928Z,22.76
2022-07-30T07:39:47.900Z,22.77
2022-07-30T07:41:48.769Z,22.96
2022-07-30T07:42:42.269Z,22.92
2022-07-30T07:44:46.775Z,23.02
2022-07-30T07:45:46.757Z,23.02
2022-07-30T07:47:51.973Z,23.28
2022-07-30T07:48:50.725Z,23.32
2022-07-30T07:50:59.647Z,23.42
2022-07-30T07:51:54.629Z,23.51
2022-07-30T07:54:19.797Z,23.67
2022-07-30T07:54:58.582Z,23.91
2022-07-30T07:57:04.267Z,24.10
2022-07-30T07:58:02.544Z,24.10
2022-07-30T08:00:08.026Z,24.13
2022-07-30T08:01:08.049Z,24.09
2022-07-30T08:03:11.990Z,24.18
2022-07-30T08:04:11.965Z,24.26
2022-07-30T08:06:16.462Z,24.44
2022-07-30T08:07:16.434Z,24.48
2022-07-30T08:09:20.456Z,24.62
2022-07-30T08:10:20.480Z,24.65
2022-07-30T08:12:25.355Z,24.86
2022-07-30T08:13:48.835Z,24.78
2022-07-30T08:15:30.769Z,24.66
2022-07-30T08:16:30.772Z,24.63
2022-07-30T08:18:34.748Z,24.71
2022-07-30T08:19:34.714Z,24.65
2022-07-30T08:21:29.120Z,24.58
2022-07-30T08:22:29.089Z,24.71
2022-07-30T08:24:33.078Z,25.01
2022-07-30T08:25:33.053Z,25.09
2022-07-30T08:27:37.548Z,25.14
2022-07-30T08:28:37.534Z,25.09
2022-07-30T08:30:43.024Z,25.12
2022-07-30T08:31:42.986Z,25.16
2022-07-30T08:33:47.009Z,25.24
2022-07-30T08:34:46.951Z,25.37
2022-07-30T08:36:51.443Z,25.46
2022-07-30T08:37:51.427Z,25.56
2022-07-30T08:39:56.899Z,25.78
2022-07-30T08:40:56.873Z,25.99
2022-07-30T08:43:01.353Z,26.53
2022-07-30T08:44:01.346Z,26.66
2022-07-30T08:46:05.850Z,27.11
2022-07-30T08:47:05.806Z,27.37
2022-07-30T08:49:11.383Z,27.98
2022-07-30T08:50:09.771Z,28.25
2022-07-30T08:52:14.799Z,28.60
2022-07-30T08:53:14.788Z,28.74
2022-07-30T08:55:18.792Z,28.84
2022-07-30T08:56:18.763Z,29.00
2022-07-30T08:58:22.763Z,29.07
2022-07-30T08:59:22.726Z,29.10
2022-07-30T09:01:16.139Z,29.27
2022-07-30T09:02:16.112Z,29.42
2022-07-30T09:04:21.590Z,29.89
2022-07-30T09:05:21.560Z,29.92
2022-07-30T09:07:25.550Z,29.87
2022-07-30T09:08:25.538Z,29.69
2022-07-30T09:10:30.032Z,29.18
2022-07-30T09:11:30.006Z,28.83
2022-07-30T09:13:34.036Z,28.40
2022-07-30T09:14:34.004Z,28.00
2022-07-30T09:16:39.487Z,27.48
2022-07-30T09:17:39.462Z,27.44
2022-07-30T09:19:43.468Z,27.72
2022-07-30T09:20:43.440Z,27.98
2022-07-30T09:22:47.941Z,28.50
2022-07-30T09:23:51.114Z,28.72
2022-07-30T09:25:51.913Z,28.89
2022-07-30T09:26:51.897Z,28.78
2022-07-30T09:28:57.367Z,28.83
2022-07-30T09:29:57.345Z,28.83
2022-07-30T09:31:50.767Z,29.12
2022-07-30T09:32:50.757Z,29.42
2022-07-30T09:34:54.754Z,30.11
2022-07-30T09:35:54.731Z,30.10
2022-07-30T09:38:02.955Z,29.99
2022-07-30T09:38:59.218Z,29.53
2022-07-30T09:41:12.212Z,28.80
2022-07-30T09:42:04.960Z,28.72
2022-07-30T09:44:09.199Z,29.02
2022-07-30T09:45:09.165Z,29.30
2022-07-30T09:47:14.641Z,30.01
2022-07-30T09:48:14.629Z,30.39
2022-07-30T09:50:29.966Z,30.93
2022-07-30T09:51:24.005Z,31.07
2022-07-30T09:53:24.573Z,31.26
2022-07-30T09:54:25.336Z,31.45
2022-07-30T09:56:29.962Z,31.82
2022-07-30T09:57:29.012Z,31.85
2022-07-30T09:59:35.062Z,31.55
2022-07-30T10:00:32.999Z,31.35
2022-07-30T10:02:37.480Z,31.07
2022-07-30T10:03:42.287Z,31.10
2022-07-30T10:05:41.454Z,30.70
2022-07-30T10:06:42.041Z,30.55
2022-07-30T10:08:46.473Z,30.29
2022-07-30T10:09:47.042Z,30.24
2022-07-30T10:11:40.347Z,30.27
2022-07-30T10:12:40.307Z,30.33
2022-07-30T10:14:44.784Z,30.52
2022-07-30T10:15:44.761Z,30.69
2022-07-30T10:17:49.236Z,30.88
2022-07-30T10:18:49.227Z,31.25
2022-07-30T10:20:53.749Z,31.63
2022-07-30T10:21:53.704Z,31.66
2022-07-30T10:23:57.776Z,31.78
2022-07-30T10:24:57.731Z,31.86
2022-07-30T10:27:06.171Z,32.07
2022-07-30T10:28:03.309Z,32.12
2022-07-30T10:30:08.686Z,32.39
2022-07-30T10:31:47.183Z,32.44
2022-07-30T10:33:34.614Z,32.51
2022-07-30T10:34:13.143Z,32.56
2022-07-30T10:36:17.643Z,32.82
2022-07-30T10:37:17.646Z,33.00
2022-07-30T10:39:23.137Z,33.53
2022-07-30T10:40:24.041Z,33.77
2022-07-30T10:42:28.577Z,33.73
2022-07-30T10:43:31.708Z,33.51
2022-07-30T10:45:34.042Z,33.10
2022-07-30T10:46:34.028Z,32.90
2022-07-30T10:48:38.021Z,32.46
2022-07-30T10:49:41.006Z,32.26
2022-07-30T10:51:34.402Z,31.81
2022-07-30T10:52:30.920Z,31.52
2022-07-30T10:54:39.269Z,30.70
2022-07-30T10:55:38.934Z,30.32
2022-07-30T10:57:41.868Z,30.02
2022-07-30T10:58:41.859Z,30.11
2022-07-30T11:00:46.146Z,30.61
2022-07-30T11:01:47.531Z,30.89
2022-07-30T11:02:46.098Z,31.17
2022-07-30T11:03:46.093Z,31.41
2022-07-30T11:04:46.086Z,31.73
2022-07-30T11:05:46.131Z,32.01
2022-07-30T11:06:46.083Z,32.30
2022-07-30T11:07:47.327Z,32.53
2022-07-30T11:08:48.199Z,32.66
2022-07-30T11:10:04.963Z,32.93
2022-07-30T11:10:46.128Z,33.09
2022-07-30T11:12:01.098Z,33.09
2022-07-30T11:12:46.062Z,33.29
2022-07-30T11:13:46.057Z,33.42
2022-07-30T11:14:46.053Z,33.55
2022-07-30T11:15:46.052Z,33.79
2022-07-30T11:16:46.049Z,33.77
2022-07-30T11:17:46.047Z,33.91
2022-07-30T11:18:46.045Z,34.16
2022-07-30T11:19:55.709Z,34.33
2022-07-30T11:20:48.769Z,34.47
2022-07-30T11:21:46.037Z,34.60
2022-07-30T11:22:46.037Z,34.82
2022-07-30T11:23:46.033Z,34.94
2022-07-30T11:24:46.031Z,35.15
2022-07-30T11:25:52.038Z,35.37
2022-07-30T11:26:46.029Z,35.50
2022-07-30T11:27:46.134Z,35.66
2022-07-30T11:28:46.030Z,35.88
2022-07-30T11:29:50.784Z,36.01
2022-07-30T11:30:46.029Z,36.20
2022-07-30T11:31:56.766Z,36.36
2022-07-30T11:32:48.534Z,36.32
2022-07-30T11:33:46.023Z,36.44
2022-07-30T11:34:46.019Z,36.54
2022-07-30T11:35:46.018Z,36.60
2022-07-30T11:36:47.552Z,36.43
2022-07-30T11:37:51.974Z,36.13
2022-07-30T11:38:46.013Z,35.84
2022-07-30T11:39:46.013Z,35.63
2022-07-30T11:40:46.013Z,35.64
2022-07-30T11:41:46.012Z,35.78
2022-07-30T11:42:46.007Z,35.97
2022-07-30T11:43:46.013Z,36.03
2022-07-30T11:44:46.007Z,36.05
2022-07-30T11:45:46.010Z,36.03
2022-07-30T11:46:46.007Z,36.13
2022-07-30T11:47:46.006Z,36.24
2022-07-30T11:48:46.064Z,36.25
2022-07-30T11:49:46.004Z,36.14
2022-07-30T11:50:45.999Z,35.90
2022-07-30T11:51:46.001Z,35.91
2022-07-30T11:52:45.998Z,35.94
2022-07-30T11:53:46.002Z,36.06
2022-07-30T11:54:45.998Z,36.16
2022-07-30T11:55:45.996Z,36.09
2022-07-30T11:56:45.998Z,36.17
2022-07-30T11:57:45.996Z,36.22
2022-07-30T11:58:45.994Z,36.39
2022-07-30T11:59:45.993Z,36.32
2022-07-30T12:00:46.004Z,36.45
2022-07-30T12:01:45.993Z,36.65
2022-07-30T12:02:46.046Z,36.97
2022-07-30T12:03:45.992Z,37.19
2022-07-30T12:04:45.993Z,37.40
2022-07-30T12:05:45.992Z,37.66
2022-07-30T12:06:45.991Z,37.66
2022-07-30T12:07:45.992Z,37.92
2022-07-30T12:08:45.986Z,38.13
2022-07-30T12:09:45.993Z,38.20
2022-07-30T12:10:45.991Z,38.29
2022-07-30T12:11:45.987Z,38.44
2022-07-30T12:12:45.986Z,38.50
2022-07-30T12:13:46.303Z,38.31
2022-07-30T12:14:45.987Z,37.78
2022-07-30T12:15:45.987Z,37.34
2022-07-30T12:16:45.985Z,36.87
2022-07-30T12:17:46.007Z,36.75
2022-07-30T12:18:45.991Z,36.70
2022-07-30T12:19:47.421Z,36.55
2022-07-30T12:20:45.984Z,36.48
2022-07-30T12:21:49.598Z,36.43
2022-07-30T12:22:45.989Z,36.60
2022-07-30T12:23:45.984Z,36.59
2022-07-30T12:24:45.981Z,36.62
2022-07-30T12:25:47.780Z,36.59
2022-07-30T12:26:45.979Z,36.72
2022-07-30T12:27:49.184Z,36.76
2022-07-30T12:28:45.977Z,36.99
2022-07-30T12:29:45.980Z,37.18
2022-07-30T12:30:45.977Z,37.29
2022-07-30T12:31:45.977Z,37.53
2022-07-30T12:32:45.977Z,37.76
2022-07-30T12:33:45.975Z,37.90
2022-07-30T12:34:45.973Z,38.09
2022-07-30T12:35:45.978Z,38.16
2022-07-30T12:36:45.974Z,38.20
2022-07-30T12:37:45.975Z,38.32
2022-07-30T12:38:45.980Z,38.46
2022-07-30T12:39:45.974Z,38.53
2022-07-30T12:40:56.071Z,38.62
2022-07-30T12:42:52.904Z,38.70
2022-07-30T12:43:52.868Z,38.65
2022-07-30T12:44:52.906Z,38.70
2022-07-30T12:45:54.363Z,38.91
2022-07-30T12:46:52.867Z,39.15
2022-07-30T12:47:52.851Z,39.32
2022-07-30T12:48:52.907Z,39.49
2022-07-30T12:49:53.203Z,39.60
2022-07-30T12:50:52.852Z,39.89
2022-07-30T12:51:52.849Z,40.19
2022-07-30T12:52:52.852Z,40.36
2022-07-30T12:53:52.851Z,40.36
2022-07-30T12:54:52.853Z,40.55
2022-07-30T12:55:52.851Z,40.64
2022-07-30T12:56:52.855Z,40.67
2022-07-30T12:57:52.855Z,40.76
2022-07-30T12:58:52.855Z,40.90
2022-07-30T12:59:52.861Z,40.98
2022-07-30T13:00:52.885Z,40.96
2022-07-30T13:01:52.901Z,40.76
2022-07-30T13:02:52.856Z,40.64
2022-07-30T13:03:52.856Z,40.55
2022-07-30T13:05:01.101Z,40.35
2022-07-30T13:05:55.673Z,40.39
2022-07-30T13:06:52.860Z,40.07
2022-07-30T13:07:52.857Z,39.34
2022-07-30T13:08:52.867Z,38.81
2022-07-30T13:09:52.861Z,38.57
2022-07-30T13:10:52.868Z,38.28
2022-07-30T13:11:52.861Z,37.97
2022-07-30T13:12:52.864Z,37.76
2022-07-30T13:13:52.861Z,37.76
2022-07-30T13:14:52.863Z,37.86
2022-07-30T13:15:54.210Z,37.97
2022-07-30T13:16:52.868Z,37.61
2022-07-30T13:17:52.857Z,37.21
2022-07-30T13:18:52.860Z,36.87
2022-07-30T13:19:52.860Z,36.91
2022-07-30T13:20:52.860Z,36.99
2022-07-30T13:21:52.857Z,37.15
2022-07-30T13:22:52.865Z,37.26
2022-07-30T13:23:52.852Z,37.33
2022-07-30T13:24:52.852Z,37.40
2022-07-30T13:25:52.858Z,37.56
2022-07-30T13:26:52.860Z,37.60
2022-07-30T13:27:52.849Z,37.64
2022-07-30T13:28:52.852Z,37.72
2022-07-30T13:29:52.848Z,37.85
2022-07-30T13:30:52.849Z,38.01
2022-07-30T13:31:52.847Z,38.32
2022-07-30T13:32:52.847Z,38.48
2022-07-30T13:33:52.846Z,38.72
2022-07-30T13:34:52.849Z,38.81
2022-07-30T13:35:52.843Z,38.91
2022-07-30T13:36:52.845Z,39.04
2022-07-30T13:37:52.842Z,39.30
2022-07-30T13:38:52.842Z,39.29
2022-07-30T13:39:52.840Z,39.10
2022-07-30T13:40:52.847Z,38.85
2022-07-30T13:41:52.837Z,38.85
2022-07-30T13:42:52.844Z,38.87
2022-07-30T13:43:52.841Z,39.10
2022-07-30T13:44:52.837Z,39.05
2022-07-30T13:45:52.836Z,38.84
2022-07-30T13:46:52.842Z,38.42
2022-07-30T13:47:52.834Z,38.05
2022-07-30T13:48:52.859Z,37.71
2022-07-30T13:49:52.835Z,37.37
2022-07-30T13:50:52.834Z,37.11
2022-07-30T13:51:52.830Z,37.15
2022-07-30T13:52:52.830Z,37.25
2022-07-30T13:53:52.833Z,37.29
2022-07-30T13:54:52.843Z,37.44
2022-07-30T13:55:52.828Z,37.58
2022-07-30T13:56:52.830Z,37.79
2022-07-30T13:57:52.826Z,37.78
2022-07-30T13:58:52.827Z,37.47
2022-07-30T13:59:52.824Z,37.16
2022-07-30T14:00:52.828Z,36.99
2022-07-30T14:01:52.886Z,36.75
2022-07-30T14:02:52.823Z,36.59
2022-07-30T14:03:52.822Z,36.44
2022-07-30T14:04:52.825Z,36.39
2022-07-30T14:05:52.820Z,36.54
2022-07-30T14:06:52.824Z,36.82
2022-07-30T14:07:52.821Z,37.11
2022-07-30T14:08:52.827Z,37.54
2022-07-30T14:09:54.618Z,37.88
2022-07-30T14:10:52.814Z,38.28
2022-07-30T14:11:52.807Z,38.63
2022-07-30T14:12:52.811Z,38.90
2022-07-30T14:13:52.813Z,39.05
2022-07-30T14:14:52.807Z,39.05
2022-07-30T14:15:52.834Z,39.20
2022-07-30T14:16:53.735Z,39.12
2022-07-30T14:17:56.542Z,39.17
2022-07-30T14:18:52.804Z,38.98
2022-07-30T14:19:52.809Z,38.84
2022-07-30T14:20:52.804Z,38.85
2022-07-30T14:21:52.902Z,38.66
2022-07-30T14:22:52.802Z,38.46
2022-07-30T14:23:52.797Z,38.27
2022-07-30T14:24:52.801Z,38.23
2022-07-30T14:25:52.796Z,38.09
2022-07-30T14:26:57.750Z,37.91
2022-07-30T14:27:52.793Z,37.75
2022-07-30T14:28:52.850Z,37.53
2022-07-30T14:29:52.793Z,37.38
2022-07-30T14:30:52.793Z,37.26